Terminal Aerodrome Forecast
Issued by NWS

Home | Current Version | Previous Version | Text Only | Print | Product List | Glossary On
Versions: 1 2 3 4 5 6 7 8 9 10 11 12 13 14 15 16 17 18
000
FTUS45 KABQ 051140
TAFSAF
TAF
KSAF 051140Z 0512/0612 01006KT P6SM BKN150
     FM051900 25007KT P6SM FEW060 SCT150
     FM052200 24009KT P6SM VCTS SCT060CB BKN150
     FM060000 22007KT P6SM VCSH SCT060 BKN120
     FM060500 VRB05KT P6SM BKN120=

USA.gov is the U.S. government's official web portal to all federal, state and local government web resources and services.